Time;durP1;ratioP1;P1;durP2;ratioP2;P2;SDS_P1;SDS_P2;PMS_P1;PMS_P2;Temp;Humidity;BMP_temperature;BMP_pressure;BME280_temperature;BME280_humidity;BME280_pressure;Samples;Min_cycle;Max_cycle;Signal;HPM_P1;HPM_P2
2021/05/24 00:00:31;;;;;;;3.58;3.10;;;11.70;99.90;;;;;;5076147;28;20199;-69
2021/05/24 00:02:57;;;;;;;5.72;3.53;;;11.70;99.90;;;;;;5075376;28;20206;-68
2021/05/24 00:05:25;;;;;;;4.80;3.05;;;11.70;99.90;;;;;;5075298;28;20293;-68
2021/05/24 00:07:52;;;;;;;4.20;3.45;;;11.70;99.90;;;;;;5075314;28;20333;-68
2021/05/24 00:10:21;;;;;;;4.55;3.65;;;11.50;99.90;;;;;;5075372;28;20202;-68
2021/05/24 00:12:49;;;;;;;5.68;4.13;;;11.40;99.90;;;;;;5075318;28;20205;-68
2021/05/24 00:15:17;;;;;;;4.18;3.25;;;11.40;99.90;;;;;;5075183;28;20213;-68
2021/05/24 00:17:45;;;;;;;3.47;3.10;;;11.20;99.90;;;;;;5075140;28;20693;-68
2021/05/24 00:20:12;;;;;;;4.22;3.22;;;11.30;99.90;;;;;;5075242;28;20293;-68
2021/05/24 00:22:38;;;;;;;3.95;3.50;;;11.30;99.90;;;;;;5075068;28;20711;-68
2021/05/24 00:25:06;;;;;;;4.05;3.20;;;11.30;99.90;;;;;;5075065;28;20238;-68
2021/05/24 00:27:33;;;;;;;3.75;3.20;;;11.30;99.90;;;;;;5074724;28;20227;-68
2021/05/24 00:29:59;;;;;;;4.28;3.30;;;11.20;99.90;;;;;;5075022;28;20359;-68
2021/05/24 00:32:26;;;;;;;4.25;3.13;;;11.20;99.90;;;;;;5074959;28;20207;-69
2021/05/24 00:34:53;;;;;;;3.80;3.35;;;11.20;99.90;;;;;;5074885;28;20234;-68
2021/05/24 00:37:19;;;;;;;3.58;3.28;;;11.20;99.90;;;;;;5074319;28;20305;-68
2021/05/24 00:39:45;;;;;;;4.53;3.40;;;11.20;99.90;;;;;;5074756;28;20210;-68
2021/05/24 00:42:12;;;;;;;4.38;3.35;;;11.10;99.90;;;;;;5074314;28;20259;-68
2021/05/24 00:44:38;;;;;;;4.15;3.53;;;11.10;99.90;;;;;;5074560;28;20306;-68
2021/05/24 00:47:05;;;;;;;4.47;3.67;;;11.00;99.90;;;;;;5074284;28;20223;-68
2021/05/24 00:49:32;;;;;;;4.72;3.25;;;10.90;99.90;;;;;;5074636;28;20290;-68
2021/05/24 00:51:59;;;;;;;4.07;3.50;;;10.80;99.90;;;;;;5074523;28;20649;-68
2021/05/24 00:54:27;;;;;;;4.80;3.70;;;10.80;99.90;;;;;;5074458;28;20202;-69
2021/05/24 00:56:54;;;;;;;4.55;3.30;;;10.70;99.90;;;;;;5074513;28;20581;-68
2021/05/24 00:59:21;;;;;;;3.78;3.38;;;10.80;99.90;;;;;;5074368;28;20225;-69
2021/05/24 01:01:48;;;;;;;3.55;3.25;;;10.90;99.90;;;;;;5073316;28;20207;-68
2021/05/24 01:04:16;;;;;;;4.47;3.70;;;10.80;99.90;;;;;;5074031;28;20203;-68
2021/05/24 01:06:42;;;;;;;3.28;2.95;;;10.80;99.90;;;;;;5073954;28;20237;-68
2021/05/24 01:09:09;;;;;;;5.28;3.70;;;10.80;99.90;;;;;;5074244;28;20313;-68
2021/05/24 01:11:36;;;;;;;5.00;3.47;;;10.90;99.90;;;;;;5074405;28;20301;-68
2021/05/24 01:14:04;;;;;;;5.25;3.92;;;10.90;99.90;;;;;;5074153;28;20202;-69
2021/05/24 01:16:31;;;;;;;3.78;3.38;;;10.80;99.90;;;;;;5073796;28;20202;-68
2021/05/24 01:18:57;;;;;;;5.22;3.50;;;10.70;99.90;;;;;;5073743;28;20314;-69
2021/05/24 01:21:25;;;;;;;4.20;3.35;;;10.80;99.90;;;;;;5073780;28;20256;-68
2021/05/24 01:23:52;;;;;;;4.95;3.40;;;10.70;99.90;;;;;;5074088;28;20615;-68
2021/05/24 01:26:20;;;;;;;4.50;3.40;;;10.70;99.90;;;;;;5073664;28;20203;-68
2021/05/24 01:28:47;;;;;;;5.45;3.10;;;10.70;99.90;;;;;;5073484;28;20226;-69
2021/05/24 01:31:13;;;;;;;4.13;2.97;;;10.70;99.90;;;;;;5073896;28;20263;-68
2021/05/24 01:33:40;;;;;;;3.47;2.85;;;10.80;99.90;;;;;;5073786;28;20209;-68
2021/05/24 01:36:08;;;;;;;2.78;2.58;;;10.90;99.90;;;;;;5073687;28;20207;-69
2021/05/24 01:38:37;;;;;;;3.03;2.70;;;10.80;99.90;;;;;;5073443;28;20769;-68
2021/05/24 01:41:04;;;;;;;2.40;2.15;;;10.90;99.90;;;;;;5073776;28;20198;-68
2021/05/24 01:43:31;;;;;;;3.22;2.58;;;10.90;99.90;;;;;;5073644;28;20625;-68
2021/05/24 01:45:58;;;;;;;2.25;2.05;;;11.00;99.90;;;;;;5073529;28;20708;-68
2021/05/24 01:48:24;;;;;;;3.20;2.35;;;11.00;99.90;;;;;;5073510;28;20361;-68
2021/05/24 01:50:51;;;;;;;4.25;2.85;;;11.00;99.90;;;;;;5073377;28;20205;-68
2021/05/24 01:53:17;;;;;;;3.25;2.45;;;10.80;99.90;;;;;;5073446;28;20661;-68
2021/05/24 01:55:45;;;;;;;2.72;2.53;;;10.50;99.90;;;;;;5073394;28;20199;-69
2021/05/24 01:58:11;;;;;;;2.80;2.25;;;10.50;99.90;;;;;;5073320;28;20219;-68
2021/05/24 02:00:38;;;;;;;3.25;2.58;;;10.50;99.90;;;;;;5073246;28;20199;-68
2021/05/24 02:03:04;;;;;;;4.35;2.65;;;10.50;99.90;;;;;;5073597;28;20652;-68
2021/05/24 02:05:31;;;;;;;3.45;3.03;;;10.60;99.90;;;;;;5073333;28;20208;-68
2021/05/24 02:07:59;;;;;;;2.85;2.60;;;10.70;99.90;;;;;;5073176;28;20234;-68
2021/05/24 02:10:29;;;;;;;2.50;2.30;;;10.60;99.90;;;;;;5073543;28;20207;-68
2021/05/24 02:12:57;;;;;;;7.05;2.88;;;10.70;99.90;;;;;;5076444;28;20568;-70
2021/05/24 02:15:26;;;;;;;2.55;2.35;;;10.70;99.90;;;;;;5077109;28;20293;-69
2021/05/24 02:17:53;;;;;;;3.85;2.50;;;10.70;99.90;;;;;;5077499;28;20229;-70
2021/05/24 02:20:23;;;;;;;4.03;2.40;;;10.60;99.90;;;;;;5077493;28;20249;-69
2021/05/24 02:22:50;;;;;;;3.20;2.50;;;10.30;99.90;;;;;;5077287;28;20572;-69
2021/05/24 02:25:16;;;;;;;2.78;2.40;;;10.20;99.90;;;;;;5077381;28;20257;-69
2021/05/24 02:27:43;;;;;;;2.50;2.30;;;10.10;99.90;;;;;;5076984;28;20265;-69
2021/05/24 02:30:12;;;;;;;2.47;2.28;;;10.10;99.90;;;;;;5077303;28;20257;-69
2021/05/24 02:32:39;;;;;;;3.08;2.42;;;10.20;99.90;;;;;;5077305;28;20289;-69
2021/05/24 02:35:08;;;;;;;5.00;2.67;;;10.10;99.90;;;;;;5077192;28;20206;-69
2021/05/24 02:37:34;;;;;;;3.10;2.80;;;10.20;99.90;;;;;;5076725;28;20215;-69
2021/05/24 02:40:01;;;;;;;4.03;3.30;;;10.10;99.90;;;;;;5076852;28;20683;-69
2021/05/24 02:42:27;;;;;;;3.50;2.92;;;10.20;99.90;;;;;;5076782;28;20210;-69
2021/05/24 02:44:53;;;;;;;4.03;3.00;;;10.30;99.90;;;;;;5076783;28;20230;-69
2021/05/24 02:47:21;;;;;;;3.25;2.90;;;10.30;99.90;;;;;;5076579;28;20231;-69
2021/05/24 02:49:47;;;;;;;2.92;2.60;;;10.40;99.90;;;;;;5076938;28;20560;-69
2021/05/24 02:52:13;;;;;;;2.80;2.55;;;10.40;99.90;;;;;;5076880;28;20209;-69
2021/05/24 02:54:40;;;;;;;2.60;2.40;;;10.50;99.90;;;;;;5076807;28;20297;-69
2021/05/24 02:57:06;;;;;;;2.60;2.40;;;10.50;99.90;;;;;;5076544;28;20252;-69
2021/05/24 02:59:33;;;;;;;3.10;2.70;;;10.30;99.90;;;;;;5076787;28;20293;-69
2021/05/24 03:02:02;;;;;;;3.22;2.42;;;10.10;99.90;;;;;;5076466;28;20755;-69
2021/05/24 03:04:30;;;;;;;2.85;2.50;;;10.00;99.90;;;;;;5076629;28;20572;-69
2021/05/24 03:06:56;;;;;;;4.20;2.78;;;10.00;99.90;;;;;;5076155;28;20203;-69
2021/05/24 03:09:23;;;;;;;3.50;2.80;;;9.90;99.90;;;;;;5076426;28;20230;-69
2021/05/24 03:11:50;;;;;;;2.50;2.30;;;10.00;99.90;;;;;;5076471;28;20202;-69
2021/05/24 03:14:16;;;;;;;2.97;2.58;;;10.10;99.90;;;;;;5076239;28;20691;-69
2021/05/24 03:16:43;;;;;;;2.88;2.60;;;10.20;99.90;;;;;;5076277;28;20289;-69
2021/05/24 03:19:09;;;;;;;3.28;2.53;;;10.20;99.90;;;;;;5076386;28;20219;-69
2021/05/24 03:21:37;;;;;;;8.80;2.75;;;10.20;99.90;;;;;;5076413;28;20220;-69
2021/05/24 03:24:04;;;;;;;4.20;2.90;;;10.20;99.90;;;;;;5075063;28;20728;-69
2021/05/24 03:26:30;;;;;;;3.20;2.90;;;10.20;99.90;;;;;;5076057;28;20290;-69
2021/05/24 03:28:56;;;;;;;5.85;3.15;;;10.20;99.90;;;;;;5076115;28;20279;-69
2021/05/24 03:31:23;;;;;;;3.63;3.00;;;10.20;99.90;;;;;;5076008;28;20619;-69
2021/05/24 03:33:49;;;;;;;4.25;2.83;;;10.00;99.90;;;;;;5076072;28;20206;-69
2021/05/24 03:36:15;;;;;;;3.88;2.58;;;9.90;99.90;;;;;;5075646;28;20763;-69
2021/05/24 03:38:43;;;;;;;3.60;2.65;;;9.90;99.90;;;;;;5075887;28;20223;-69
2021/05/24 03:41:09;;;;;;;3.13;2.83;;;10.00;99.90;;;;;;5075998;28;20202;-69
2021/05/24 03:43:36;;;;;;;3.22;2.95;;;10.10;99.90;;;;;;5075618;28;20673;-69
2021/05/24 03:46:02;;;;;;;3.20;2.67;;;10.00;99.90;;;;;;5075657;28;20212;-69
2021/05/24 03:48:29;;;;;;;2.85;2.55;;;9.90;99.90;;;;;;5075751;28;20318;-69
2021/05/24 03:50:55;;;;;;;2.88;2.67;;;9.90;99.90;;;;;;5075753;28;20211;-70
2021/05/24 03:53:21;;;;;;;3.15;2.58;;;9.90;99.90;;;;;;5075767;28;20318;-69
2021/05/24 03:55:48;;;;;;;4.57;3.33;;;10.00;99.90;;;;;;5075257;28;20211;-69
2021/05/24 03:58:15;;;;;;;3.25;2.70;;;10.00;99.90;;;;;;5075662;28;20218;-69
2021/05/24 04:00:41;;;;;;;3.65;2.47;;;10.20;99.90;;;;;;5075612;28;20234;-69
2021/05/24 04:03:07;;;;;;;3.55;2.80;;;10.30;99.90;;;;;;5075474;28;20691;-69
2021/05/24 04:05:38;;;;;;;3.42;2.97;;;10.30;99.90;;;;;;5075270;28;20310;-69
2021/05/24 04:08:07;;;;;;;8.00;2.60;;;10.40;99.90;;;;;;5075400;28;20229;-69
2021/05/24 04:10:36;;;;;;;3.05;2.75;;;10.40;99.90;;;;;;5075440;28;20199;-69
2021/05/24 04:13:04;;;;;;;2.55;2.35;;;10.20;99.90;;;;;;5075207;28;20202;-69
2021/05/24 04:15:30;;;;;;;4.00;2.75;;;10.10;99.90;;;;;;5075101;28;20206;-69
2021/05/24 04:17:59;;;;;;;3.15;2.80;;;10.00;99.90;;;;;;5075132;28;20219;-69
2021/05/24 04:20:26;;;;;;;3.28;2.95;;;10.00;99.90;;;;;;5075714;28;20213;-69
2021/05/24 04:22:53;;;;;;;3.83;3.03;;;10.00;99.90;;;;;;5074942;28;20210;-69
2021/05/24 04:25:19;;;;;;;4.30;2.85;;;9.90;99.90;;;;;;5074927;28;20203;-69
2021/05/24 04:27:46;;;;;;;6.60;3.20;;;10.10;99.90;;;;;;5074879;28;20317;-69
2021/05/24 04:30:15;;;;;;;3.30;3.00;;;10.20;99.90;;;;;;5075116;28;20203;-69
2021/05/24 04:32:41;;;;;;;3.03;2.72;;;10.40;99.90;;;;;;5074900;28;20206;-69
2021/05/24 04:35:09;;;;;;;3.08;2.78;;;10.40;99.90;;;;;;5074721;28;20297;-69
2021/05/24 04:37:36;;;;;;;4.22;2.90;;;10.50;99.90;;;;;;5074616;28;20227;-69
2021/05/24 04:40:02;;;;;;;2.70;2.50;;;10.40;99.90;;;;;;5074881;28;20717;-69
2021/05/24 04:42:29;;;;;;;2.50;2.30;;;10.50;99.90;;;;;;5074370;28;20217;-69
2021/05/24 04:44:55;;;;;;;3.42;2.60;;;10.30;99.90;;;;;;5074684;28;20203;-69
2021/05/24 04:47:22;;;;;;;4.47;2.67;;;10.40;99.90;;;;;;5074115;28;20791;-69
2021/05/24 04:49:50;;;;;;;2.60;2.40;;;10.30;99.90;;;;;;5074656;28;20624;-69
2021/05/24 04:52:16;;;;;;;4.20;2.90;;;10.20;99.90;;;;;;5074295;28;20694;-69
2021/05/24 04:54:43;;;;;;;2.90;2.50;;;10.30;99.90;;;;;;5074377;28;20238;-69
2021/05/24 04:57:10;;;;;;;3.63;2.67;;;10.30;99.90;;;;;;5074088;28;20683;-69
2021/05/24 04:59:36;;;;;;;3.00;2.70;;;10.20;99.90;;;;;;5074468;28;20290;-69
2021/05/24 05:02:02;;;;;;;3.80;3.22;;;10.30;99.90;;;;;;5074340;28;20297;-69
2021/05/24 05:04:30;;;;;;;3.80;2.97;;;10.30;99.90;;;;;;5074105;28;20669;-69
2021/05/24 05:06:57;;;;;;;3.92;3.03;;;10.40;99.90;;;;;;5074151;28;20293;-69
2021/05/24 05:09:24;;;;;;;4.53;3.90;;;10.40;99.90;;;;;;5074152;28;20254;-69
2021/05/24 05:11:52;;;;;;;3.97;3.30;;;10.30;99.90;;;;;;5074118;28;20207;-69
2021/05/24 05:14:18;;;;;;;4.65;3.35;;;10.40;99.90;;;;;;5074155;28;20203;-69
2021/05/24 05:16:45;;;;;;;3.30;3.00;;;10.60;99.90;;;;;;5074042;28;20568;-69
2021/05/24 05:19:11;;;;;;;3.20;2.53;;;10.80;99.90;;;;;;5073798;28;20712;-69
2021/05/24 05:21:38;;;;;;;2.80;2.60;;;10.90;99.90;;;;;;5074083;28;20297;-69
2021/05/24 05:24:05;;;;;;;2.90;2.70;;;11.00;99.90;;;;;;5074055;28;20293;-69
2021/05/24 05:26:32;;;;;;;3.13;2.30;;;11.00;99.90;;;;;;5073574;28;20285;-69
2021/05/24 05:28:58;;;;;;;2.85;2.55;;;11.10;99.90;;;;;;5073820;28;20333;-69
2021/05/24 05:31:25;;;;;;;3.05;2.70;;;11.20;99.90;;;;;;5073925;28;20328;-69
2021/05/24 05:33:51;;;;;;;2.97;2.72;;;11.10;99.90;;;;;;5073949;28;20293;-69
2021/05/24 05:36:18;;;;;;;2.95;2.65;;;11.10;99.90;;;;;;5073558;28;20298;-69
2021/05/24 05:38:45;;;;;;;4.15;3.30;;;11.10;99.90;;;;;;5073878;28;20334;-69
2021/05/24 05:41:12;;;;;;;2.35;2.15;;;11.10;99.90;;;;;;5073830;28;20230;-69
2021/05/24 05:43:38;;;;;;;5.32;2.83;;;11.10;99.90;;;;;;5073512;28;20217;-69
2021/05/24 05:46:04;;;;;;;4.43;3.10;;;11.10;99.90;;;;;;5073356;28;20294;-69
2021/05/24 05:48:31;;;;;;;3.90;3.50;;;11.00;99.90;;;;;;5073357;28;20222;-69
2021/05/24 05:50:57;;;;;;;5.22;4.45;;;10.90;99.90;;;;;;5073664;28;20202;-69
2021/05/24 05:53:23;;;;;;;4.80;3.90;;;10.70;99.90;;;;;;5073600;28;20290;-69
2021/05/24 05:55:52;;;;;;;4.28;3.67;;;10.70;99.90;;;;;;5073276;28;20202;-69
2021/05/24 05:58:18;;;;;;;4.55;4.15;;;10.80;99.90;;;;;;5073456;28;20218;-69
2021/05/24 06:00:45;;;;;;;4.20;3.85;;;10.80;99.90;;;;;;5073521;28;20207;-69
2021/05/24 06:03:12;;;;;;;5.63;4.00;;;10.80;99.90;;;;;;5073309;28;20294;-69
2021/05/24 06:05:39;;;;;;;4.13;3.72;;;10.80;99.90;;;;;;5073543;28;20211;-69
2021/05/24 06:08:06;;;;;;;5.32;4.25;;;11.00;99.90;;;;;;5073187;28;20317;-69
2021/05/24 06:10:32;;;;;;;5.15;3.97;;;11.10;99.90;;;;;;5073157;28;20323;-69
2021/05/24 06:13:00;;;;;;;5.88;4.60;;;11.20;99.90;;;;;;5073397;28;20301;-69
2021/05/24 06:15:27;;;;;;;4.55;3.80;;;11.50;99.90;;;;;;5073321;28;20568;-69
2021/05/24 06:17:53;;;;;;;5.97;4.18;;;11.60;99.90;;;;;;5073187;28;20223;-69
2021/05/24 06:20:20;;;;;;;5.15;3.67;;;11.70;99.90;;;;;;5073285;28;20269;-69
2021/05/24 06:22:46;;;;;;;5.18;4.00;;;11.70;99.90;;;;;;5073294;28;20209;-69
2021/05/24 06:25:13;;;;;;;6.57;4.45;;;11.60;99.90;;;;;;5073288;28;20538;-69
2021/05/24 06:27:40;;;;;;;5.45;4.10;;;11.60;99.90;;;;;;5073096;28;20230;-69
2021/05/24 06:30:10;;;;;;;5.75;3.95;;;11.60;99.90;;;;;;5073240;28;20364;-69
2021/05/24 06:32:37;;;;;;;4.32;3.92;;;11.80;99.90;;;;;;5073142;28;20203;-70
2021/05/24 06:35:05;;;;;;;4.00;3.50;;;11.90;99.90;;;;;;5073232;28;20293;-69
2021/05/24 06:37:31;;;;;;;4.10;3.17;;;12.00;99.90;;;;;;5073083;28;20224;-69
2021/05/24 06:39:58;;;;;;;5.72;3.40;;;11.90;99.90;;;;;;5073211;28;20297;-70
2021/05/24 06:42:25;;;;;;;4.15;3.70;;;11.90;99.90;;;;;;5073236;28;20282;-69
2021/05/24 06:44:51;;;;;;;4.57;3.92;;;12.00;99.90;;;;;;5073249;28;20214;-69
2021/05/24 06:47:18;;;;;;;5.40;3.47;;;12.10;99.90;;;;;;5072927;28;20202;-69
2021/05/24 06:49:45;;;;;;;4.80;4.30;;;12.10;99.90;;;;;;5073169;28;20217;-69
2021/05/24 06:52:11;;;;;;;4.13;3.67;;;12.10;99.90;;;;;;5073067;28;20203;-69
2021/05/24 06:54:38;;;;;;;4.75;4.30;;;12.30;99.90;;;;;;5072781;28;20234;-69
2021/05/24 06:57:06;;;;;;;4.70;3.85;;;12.40;99.90;;;;;;5072980;28;20203;-69
2021/05/24 06:59:32;;;;;;;4.40;3.90;;;12.70;99.90;;;;;;5076448;28;20316;-69
2021/05/24 07:02:01;;;;;;;5.13;4.20;;;12.80;99.90;;;;;;5076854;28;20210;-69
2021/05/24 07:04:28;;;;;;;5.03;4.15;;;12.90;99.90;;;;;;5076675;28;20238;-69
2021/05/24 07:06:55;;;;;;;6.18;3.95;;;13.20;99.90;;;;;;5076356;28;20211;-69
2021/05/24 07:09:31;;;;;;;5.00;3.95;;;13.40;99.90;;;;;;5076788;28;20344;-69
2021/05/24 07:12:02;;;;;;;7.40;4.40;;;13.50;99.90;;;;;;5076979;28;20202;-69
2021/05/24 07:14:45;;;;;;;4.13;3.70;;;13.60;99.90;;;;;;5076671;28;20237;-69
2021/05/24 07:17:12;;;;;;;7.20;3.97;;;13.60;99.90;;;;;;5076098;28;20199;-70
2021/05/24 07:19:53;;;;;;;4.00;3.40;;;13.80;99.90;;;;;;5076538;28;20198;-69
2021/05/24 07:22:19;;;;;;;4.13;3.33;;;13.90;99.90;;;;;;5076345;28;20600;-70
2021/05/24 07:24:45;;;;;;;3.70;3.35;;;14.00;99.90;;;;;;5076155;28;20792;-69
2021/05/24 07:27:12;;;;;;;3.80;3.17;;;14.30;99.90;;;;;;5075908;28;20688;-70
2021/05/24 07:29:38;;;;;;;4.15;3.42;;;14.50;99.90;;;;;;5076162;28;20315;-69
2021/05/24 07:32:09;;;;;;;4.95;3.22;;;14.50;99.90;;;;;;5076092;28;20294;-70
2021/05/24 07:34:36;;;;;;;3.67;3.10;;;14.70;99.90;;;;;;5076555;28;20255;-69
2021/05/24 07:37:03;;;;;;;6.05;3.00;;;14.80;99.90;;;;;;5075648;28;20242;-70
2021/05/24 07:39:30;;;;;;;4.55;3.10;;;14.60;99.90;;;;;;5076098;28;20203;-69
2021/05/24 07:41:59;;;;;;;4.18;3.78;;;14.60;99.90;;;;;;5075745;28;20749;-70
2021/05/24 07:44:27;;;;;;;5.60;3.13;;;14.70;99.90;;;;;;5075923;28;20208;-69
2021/05/24 07:46:54;;;;;;;3.70;3.40;;;14.70;99.90;;;;;;5075739;28;20203;-70
2021/05/24 07:49:21;;;;;;;5.15;2.95;;;14.80;99.90;;;;;;5075754;28;20562;-70
2021/05/24 07:51:47;;;;;;;5.03;3.40;;;14.70;99.90;;;;;;5075823;28;20605;-68
2021/05/24 07:54:15;;;;;;;4.15;2.78;;;14.80;99.90;;;;;;5075722;28;20225;-69
2021/05/24 07:56:43;;;;;;;3.60;3.30;;;14.90;99.90;;;;;;5075382;28;20210;-70
2021/05/24 07:59:10;;;;;;;3.42;3.00;;;14.90;99.90;;;;;;5075808;28;20245;-69
2021/05/24 08:01:36;;;;;;;4.82;3.00;;;14.80;99.90;;;;;;5075645;28;20272;-69
2021/05/24 08:04:03;;;;;;;4.00;3.60;;;14.80;99.90;;;;;;5075548;28;20629;-69
2021/05/24 08:06:29;;;;;;;3.90;3.50;;;14.80;99.90;;;;;;5075325;28;20274;-69
2021/05/24 08:08:56;;;;;;;4.82;3.22;;;14.90;99.90;;;;;;5075340;28;20227;-69
2021/05/24 08:11:24;;;;;;;4.95;3.10;;;14.90;99.90;;;;;;5074538;28;20204;-69
2021/05/24 08:13:50;;;;;;;3.90;3.40;;;15.00;99.90;;;;;;5075128;28;20211;-69
2021/05/24 08:16:17;;;;;;;3.80;3.28;;;15.20;99.90;;;;;;5075156;28;20212;-69
2021/05/24 08:18:44;;;;;;;3.75;3.45;;;15.40;99.90;;;;;;5075277;28;20226;-69
2021/05/24 08:21:10;;;;;;;4.28;3.80;;;15.40;99.90;;;;;;5075225;28;20204;-69
2021/05/24 08:23:37;;;;;;;4.30;3.35;;;15.50;99.90;;;;;;5075019;28;20287;-69
2021/05/24 08:26:04;;;;;;;3.67;3.30;;;15.70;99.90;;;;;;5074833;28;20342;-69
2021/05/24 08:28:32;;;;;;;3.55;3.25;;;15.90;99.90;;;;;;5074960;28;20224;-69
2021/05/24 08:30:58;;;;;;;4.13;2.95;;;16.00;99.90;;;;;;5075066;28;20300;-69
2021/05/24 08:33:25;;;;;;;2.92;2.55;;;16.20;99.90;;;;;;5074823;28;20667;-69
2021/05/24 08:35:52;;;;;;;3.08;2.70;;;16.20;99.90;;;;;;5074733;28;20609;-70
2021/05/24 08:38:19;;;;;;;3.42;2.90;;;16.40;99.90;;;;;;5074756;28;20223;-70
2021/05/24 08:40:47;;;;;;;2.50;2.30;;;16.80;99.90;;;;;;5074536;28;20206;-69
2021/05/24 08:43:15;;;;;;;2.20;2.00;;;16.90;99.50;;;;;;5074634;28;20211;-69
2021/05/24 08:45:43;;;;;;;1.65;1.55;;;17.00;98.60;;;;;;5074394;28;20682;-70
2021/05/24 08:48:10;;;;;;;1.73;1.63;;;17.10;97.00;;;;;;5074255;28;20234;-69
2021/05/24 08:50:37;;;;;;;3.47;2.80;;;17.20;95.60;;;;;;5074668;28;20247;-69
2021/05/24 08:53:04;;;;;;;3.60;3.30;;;17.60;95.50;;;;;;5074449;28;20293;-69
2021/05/24 08:55:31;;;;;;;3.25;2.95;;;18.20;94.50;;;;;;5074408;28;20275;-70
2021/05/24 08:57:58;;;;;;;2.75;2.50;;;18.60;93.50;;;;;;5074479;28;20307;-69
2021/05/24 09:00:24;;;;;;;3.83;3.07;;;19.00;92.40;;;;;;5074490;28;20229;-70
2021/05/24 09:02:53;;;;;;;2.50;2.30;;;19.70;91.60;;;;;;5074268;28;20911;-69
2021/05/24 09:05:23;;;;;;;2.80;2.30;;;20.00;88.10;;;;;;5074202;28;20441;-70
2021/05/24 09:07:51;;;;;;;2.57;2.37;;;20.00;88.20;;;;;;5073843;28;20465;-70
2021/05/24 09:10:18;;;;;;;2.97;2.67;;;20.60;86.10;;;;;;5074282;28;20535;-69
2021/05/24 09:12:44;;;;;;;2.97;2.73;;;21.10;84.60;;;;;;5074221;28;20477;-69
2021/05/24 09:15:14;;;;;;;2.50;2.40;;;21.60;81.50;;;;;;5074194;28;20437;-70
2021/05/24 09:17:44;;;;;;;4.07;2.97;;;21.80;80.20;;;;;;5073969;28;20535;-70
2021/05/24 09:20:30;;;;;;;3.50;2.30;;;22.00;77.50;;;;;;5074063;28;20444;-69
2021/05/24 09:23:15;;;;;;;2.47;2.37;;;22.10;75.20;;;;;;5073265;28;20791;-70
2021/05/24 09:26:02;;;;;;;2.13;2.00;;;21.90;74.90;;;;;;5073860;28;20451;-70
2021/05/24 09:28:34;;;;;;;2.70;2.40;;;21.60;74.20;;;;;;5073806;28;21047;-69
2021/05/24 09:31:04;;;;;;;2.60;2.40;;;21.40;75.40;;;;;;5073933;28;20535;-69
2021/05/24 09:33:31;;;;;;;2.53;2.33;;;21.20;75.00;;;;;;5073741;28;20444;-69
2021/05/24 09:35:58;;;;;;;2.37;2.17;;;21.00;76.50;;;;;;5073608;28;20447;-70
2021/05/24 09:38:25;;;;;;;2.57;2.20;;;20.90;77.30;;;;;;5073503;28;20468;-70
2021/05/24 09:40:54;;;;;;;2.63;2.00;;;20.90;77.90;;;;;;5073905;28;20801;-69
2021/05/24 09:43:28;;;;;;;2.20;2.00;;;21.00;77.10;;;;;;5073401;28;20480;-70
2021/05/24 09:46:05;;;;;;;2.63;2.43;;;20.90;77.70;;;;;;5073551;28;20459;-70
2021/05/24 09:48:32;;;;;;;2.10;1.90;;;20.80;77.90;;;;;;5073719;28;20570;-70
2021/05/24 09:51:02;;;;;;;2.27;2.13;;;20.70;78.70;;;;;;5073661;28;20539;-70
2021/05/24 09:53:28;;;;;;;2.37;2.17;;;20.50;78.10;;;;;;5073564;28;20443;-70
2021/05/24 09:55:54;;;;;;;2.90;2.60;;;20.50;79.00;;;;;;5073426;28;20452;-69
2021/05/24 09:58:21;;;;;;;3.13;2.27;;;20.50;80.00;;;;;;5073277;28;21035;-70
2021/05/24 10:00:51;;;;;;;1.97;1.87;;;20.50;81.40;;;;;;5073561;28;20445;-69
2021/05/24 10:03:20;;;;;;;3.73;2.00;;;20.70;80.80;;;;;;5073492;28;20451;-69
2021/05/24 10:05:51;;;;;;;2.27;2.07;;;20.80;79.50;;;;;;5073285;28;20526;-69
2021/05/24 10:08:18;;;;;;;2.10;2.00;;;20.90;79.80;;;;;;5073388;28;20483;-70
2021/05/24 10:10:45;;;;;;;2.67;2.17;;;21.10;79.70;;;;;;5073476;28;20443;-69
2021/05/24 10:13:11;;;;;;;2.20;1.97;;;21.10;78.70;;;;;;5073438;28;20534;-69
2021/05/24 10:15:39;;;;;;;2.87;2.20;;;21.00;78.90;;;;;;5073247;28;20447;-70
2021/05/24 10:18:06;;;;;;;2.47;2.20;;;20.90;79.40;;;;;;5073345;28;20545;-69
2021/05/24 10:20:34;;;;;;;1.97;1.83;;;20.70;80.50;;;;;;5073052;28;20447;-69
2021/05/24 10:23:00;;;;;;;2.77;2.33;;;20.60;80.60;;;;;;5073355;28;20445;-69
2021/05/24 10:25:28;;;;;;;3.00;2.13;;;20.40;80.80;;;;;;5073167;28;20529;-70
2021/05/24 10:27:55;;;;;;;2.00;1.90;;;20.40;81.80;;;;;;5073120;28;20515;-69
2021/05/24 10:30:22;;;;;;;5.80;2.67;;;20.30;82.20;;;;;;5073395;28;20482;-70
2021/05/24 10:32:56;;;;;;;3.33;2.27;;;20.40;83.60;;;;;;5073943;28;20445;-70
2021/05/24 10:35:32;;;;;;;4.23;2.37;;;20.50;84.00;;;;;;5076989;28;20449;-69
2021/05/24 10:37:59;;;;;;;2.53;2.43;;;20.50;85.20;;;;;;5077148;28;20461;-70
2021/05/24 10:40:26;;;;;;;1.97;1.87;;;20.50;84.60;;;;;;5077065;28;20816;-69
2021/05/24 10:43:07;;;;;;;2.30;2.17;;;20.40;86.60;;;;;;5076841;28;20588;-70
2021/05/24 10:45:34;;;;;;;2.27;1.97;;;20.30;86.80;;;;;;5076870;28;20471;-70
2021/05/24 10:48:01;;;;;;;2.47;2.27;;;20.10;90.10;;;;;;5076881;28;20546;-70
2021/05/24 10:50:30;;;;;;;2.10;1.90;;;20.00;89.80;;;;;;5076668;28;20433;-70
2021/05/24 10:52:59;;;;;;;2.60;1.80;;;20.00;88.90;;;;;;5076844;28;20442;-69
2021/05/24 10:55:44;;;;;;;1.40;1.30;;;20.00;90.00;;;;;;5076503;28;20914;-70
2021/05/24 10:58:15;;;;;;;1.83;1.67;;;19.90;85.80;;;;;;5075366;28;20480;-70
2021/05/24 11:00:53;;;;;;;3.45;1.80;;;19.80;91.20;;;;;;5076825;28;20445;-69
2021/05/24 11:03:20;;;;;;;1.63;1.52;;;19.80;90.30;;;;;;5076730;28;20610;-69
2021/05/24 11:06:06;;;;;;;1.83;1.70;;;19.80;84.30;;;;;;5076347;28;20209;-70
2021/05/24 11:08:34;;;;;;;1.23;1.13;;;19.70;82.90;;;;;;5076261;28;20701;-70
2021/05/24 11:11:18;;;;;;;1.75;1.50;;;19.60;82.90;;;;;;5076352;28;20256;-69
2021/05/24 11:13:52;;;;;;;1.70;1.60;;;19.60;90.60;;;;;;5077075;28;20214;-69
2021/05/24 11:16:18;;;;;;;1.90;1.80;;;19.70;91.20;;;;;;5076314;28;20869;-70
2021/05/24 11:18:46;;;;;;;1.73;1.60;;;19.80;90.30;;;;;;5076176;28;20543;-69
2021/05/24 11:21:18;;;;;;;2.50;2.30;;;19.80;90.40;;;;;;5076106;28;20573;-70
2021/05/24 11:24:03;;;;;;;2.03;1.83;;;19.90;86.70;;;;;;5076108;28;20535;-70
2021/05/24 11:26:32;;;;;;;2.07;1.87;;;19.70;79.10;;;;;;5076018;28;20917;-69
2021/05/24 11:29:01;;;;;;;2.15;2.05;;;19.80;82.90;;;;;;5075806;28;20481;-69
2021/05/24 11:31:31;;;;;;;2.80;2.60;;;20.00;85.70;;;;;;5076147;28;20212;-70
2021/05/24 11:33:59;;;;;;;2.90;2.67;;;20.30;88.10;;;;;;5075963;28;20439;-70
2021/05/24 11:36:51;;;;;;;3.37;2.40;;;20.50;88.10;;;;;;5075845;28;20858;-70
2021/05/24 11:39:28;;;;;;;2.73;1.80;;;20.60;87.40;;;;;;5075707;28;21032;-69
2021/05/24 11:41:58;;;;;;;2.53;2.33;;;20.70;88.70;;;;;;5075790;28;20545;-70
2021/05/24 11:44:25;;;;;;;2.83;2.63;;;20.90;84.60;;;;;;5074972;28;20443;-70
2021/05/24 11:46:53;;;;;;;3.53;2.33;;;20.90;85.70;;;;;;5075784;28;20449;-70
2021/05/24 11:49:30;;;;;;;2.20;1.93;;;21.10;85.80;;;;;;5075768;28;20487;-69
2021/05/24 11:51:57;;;;;;;2.60;2.30;;;21.30;83.60;;;;;;5075850;28;20446;-70
2021/05/24 11:54:25;;;;;;;2.83;2.60;;;21.50;83.20;;;;;;5075709;28;20443;-69
2021/05/24 11:56:54;;;;;;;2.73;2.53;;;21.30;80.30;;;;;;5075589;28;20540;-70
2021/05/24 11:59:22;;;;;;;2.47;2.27;;;21.40;82.00;;;;;;5075637;28;20468;-70
2021/05/24 12:01:50;;;;;;;2.70;2.40;;;21.50;82.20;;;;;;5075613;28;20803;-70
2021/05/24 12:04:18;;;;;;;2.10;2.00;;;21.50;80.20;;;;;;5075496;28;20535;-69
2021/05/24 12:06:49;;;;;;;3.00;2.63;;;21.40;80.30;;;;;;5075193;28;20449;-70
2021/05/24 12:09:33;;;;;;;2.43;2.23;;;21.40;81.70;;;;;;5076267;28;20492;-70
2021/05/24 12:12:00;;;;;;;2.20;2.00;;;21.60;83.20;;;;;;5075244;28;20484;-69
2021/05/24 12:14:28;;;;;;;2.20;2.00;;;21.60;82.00;;;;;;5075443;28;20444;-69
2021/05/24 12:16:54;;;;;;;2.90;2.10;;;21.60;81.10;;;;;;5075014;28;20579;-69
2021/05/24 12:19:22;;;;;;;2.20;1.90;;;21.50;82.10;;;;;;5074868;28;20556;-69
2021/05/24 12:21:50;;;;;;;2.53;2.33;;;21.50;77.40;;;;;;5075275;28;20526;-69
2021/05/24 12:24:18;;;;;;;2.53;2.33;;;21.50;80.50;;;;;;5075202;28;20530;-69
2021/05/24 12:26:52;;;;;;;2.60;2.20;;;21.40;77.10;;;;;;5074969;28;20767;-69
2021/05/24 12:29:22;;;;;;;2.03;1.70;;;21.20;77.30;;;;;;5075028;28;20480;-69
2021/05/24 12:31:50;;;;;;;2.07;1.90;;;21.20;81.30;;;;;;5074988;28;20586;-70
2021/05/24 12:34:19;;;;;;;1.70;1.50;;;21.10;77.00;;;;;;5074596;28;20452;-70
2021/05/24 12:36:53;;;;;;;1.40;1.27;;;21.00;78.30;;;;;;5074631;28;20435;-69
2021/05/24 12:39:20;;;;;;;1.60;1.50;;;20.90;78.50;;;;;;5074831;28;20475;-70
2021/05/24 12:41:50;;;;;;;1.37;1.30;;;20.90;80.00;;;;;;5074691;28;20449;-71
2021/05/24 12:44:22;;;;;;;1.57;1.47;;;21.10;78.60;;;;;;5074408;28;20443;-70
2021/05/24 12:46:51;;;;;;;1.50;1.40;;;21.00;72.50;;;;;;5074518;28;20451;-70
2021/05/24 12:49:21;;;;;;;1.27;1.27;;;21.00;69.30;;;;;;5074596;28;20479;-70
2021/05/24 12:51:56;;;;;;;1.00;1.00;;;21.00;69.60;;;;;;5074605;28;20525;-70